KCDS/CDS METAR and TAF weather

Enter ICAO airport designator
Station Type Date Time Source
KCDS METAR 2022/12/04 04:53 UTC NOAA

KCDS 040453Z AUTO 15006KT 10SM CLR 04/M05 A3040 RMK AO2 PRESFR SLP299 T00441050


Station Type Date Time Source
KCDS Decoded METAR 2022/12/04 04:53 UTC NOAA

CHILDRESS MUNICIPAL AIRPORT, TX, United States (KCDS) 34-26N 100-17W 594M
Dec 03, 2022 - 11:53 PM EST / 2022.12.04 0453 UTC
Wind: from the SSE (150 degrees) at 7 MPH (6 KT):0
Visibility: 10 mile(s):0
Sky conditions: clear
Temperature: 39.9 F (4.4 C)
Dew Point: 23.0 F (-5.0 C)
Relative Humidity: 50%
Pressure (altimeter): 30.4 in. Hg (1029 hPa)
Pressure tendency: falling rapidly
ob: KCDS 040453Z AUTO 15006KT 10SM CLR 04/M05 A3040 RMK AO2 PRESFR SLP299 T00441050
cycle: 5

Station Type Date Time Source
KCDS TAF 2022/12/04 06:22 UTC NOAA

TAF KCDS 040520Z 0406/0506 17003KT P6SM -RA OVC050
FM041400 19011KT P6SM BKN150

Example: see airport list